createdAt,value
2023-04-17T00:00:39.906Z,1009.80
2023-04-17T00:01:39.900Z,1009.82
2023-04-17T00:02:40.403Z,1009.84
2023-04-17T00:03:40.060Z,1009.86
2023-04-17T00:04:40.147Z,1009.87
2023-04-17T00:05:39.850Z,1009.79
2023-04-17T00:06:39.858Z,1009.80
2023-04-17T00:07:44.859Z,1009.84
2023-04-17T00:08:39.809Z,1009.83
2023-04-17T00:09:39.805Z,1009.83
2023-04-17T00:10:39.808Z,1009.81
2023-04-17T00:11:39.790Z,1009.81
2023-04-17T00:12:39.775Z,1009.80
2023-04-17T00:13:39.755Z,1009.81
2023-04-17T00:14:39.744Z,1009.76
2023-04-17T00:15:39.751Z,1009.82
2023-04-17T00:16:39.782Z,1009.76
2023-04-17T00:17:39.745Z,1009.79
2023-04-17T00:18:44.720Z,1009.81
2023-04-17T00:19:39.686Z,1009.85
2023-04-17T00:20:39.677Z,1009.76
2023-04-17T00:21:39.661Z,1009.78
2023-04-17T00:22:39.678Z,1009.81
2023-04-17T00:23:39.653Z,1009.83
2023-04-17T00:24:39.633Z,1009.82
2023-04-17T00:25:39.616Z,1009.81
2023-04-17T00:26:39.622Z,1009.78
2023-04-17T00:27:39.604Z,1009.77
2023-04-17T00:28:39.600Z,1009.81
2023-04-17T00:29:44.609Z,1009.69
2023-04-17T00:30:39.562Z,1009.78
2023-04-17T00:31:39.603Z,1009.75
2023-04-17T00:32:39.597Z,1009.81
2023-04-17T00:33:39.535Z,1009.73
2023-04-17T00:34:39.533Z,1009.71
2023-04-17T00:35:39.504Z,1009.79
2023-04-17T00:36:39.506Z,1009.75
2023-04-17T00:37:39.509Z,1009.69
2023-04-17T00:38:39.480Z,1009.60
2023-04-17T00:39:39.461Z,1009.78
2023-04-17T00:40:44.489Z,1009.72
2023-04-17T00:41:39.650Z,1009.72
2023-04-17T00:42:39.429Z,1009.76
2023-04-17T00:43:39.424Z,1009.76
2023-04-17T00:44:39.420Z,1009.75
2023-04-17T00:45:39.429Z,1009.67
2023-04-17T00:46:39.407Z,1009.67
2023-04-17T00:47:39.437Z,1009.73
2023-04-17T00:48:39.373Z,1009.71
2023-04-17T00:49:39.349Z,1009.70
2023-04-17T00:50:39.339Z,1009.71
2023-04-17T00:51:44.348Z,1009.66
2023-04-17T00:52:39.338Z,1009.65
2023-04-17T00:53:39.326Z,1009.62
2023-04-17T00:54:39.292Z,1009.60
2023-04-17T00:55:39.311Z,1009.70
2023-04-17T00:56:39.273Z,1009.65
2023-04-17T00:57:39.268Z,1009.57
2023-04-17T00:58:39.287Z,1009.65
2023-04-17T00:59:39.246Z,1009.67
2023-04-17T01:00:39.231Z,1009.65
2023-04-17T01:01:39.305Z,1009.65
2023-04-17T01:02:44.381Z,1009.69
2023-04-17T01:03:39.371Z,1009.59
2023-04-17T01:04:39.232Z,1009.61
2023-04-17T01:05:39.171Z,1009.60
2023-04-17T01:06:39.161Z,1009.68
2023-04-17T01:07:39.151Z,1009.61
2023-04-17T01:08:39.142Z,1009.66
2023-04-17T01:09:39.131Z,1009.64
2023-04-17T01:10:39.123Z,1009.58
2023-04-17T01:11:39.135Z,1009.60
2023-04-17T01:12:39.100Z,1009.54
2023-04-17T01:13:44.108Z,1009.58
2023-04-17T01:14:39.070Z,1009.55
2023-04-17T01:15:39.055Z,1009.61
2023-04-17T01:16:39.124Z,1009.61
2023-04-17T01:17:39.110Z,1009.57
2023-04-17T01:18:39.052Z,1009.59
2023-04-17T01:19:39.010Z,1009.61
2023-04-17T01:20:39.015Z,1009.60
2023-04-17T01:21:38.999Z,1009.58
2023-04-17T01:22:38.999Z,1009.61
2023-04-17T01:23:38.973Z,1009.61
2023-04-17T01:24:43.983Z,1009.59
2023-04-17T01:25:38.939Z,1009.59
2023-04-17T01:26:38.930Z,1009.63
2023-04-17T01:27:38.915Z,1009.58
2023-04-17T01:28:38.928Z,1009.62
2023-04-17T01:29:38.895Z,1009.53
2023-04-17T01:30:38.914Z,1009.51
2023-04-17T01:31:38.884Z,1009.60
2023-04-17T01:32:38.919Z,1009.62
2023-04-17T01:33:38.860Z,1009.64
2023-04-17T01:34:38.878Z,1009.63
2023-04-17T01:35:43.850Z,1009.64
2023-04-17T01:36:38.814Z,1009.64
2023-04-17T01:37:38.803Z,1009.66
2023-04-17T01:38:38.807Z,1009.68
2023-04-17T01:39:38.780Z,1009.61
2023-04-17T01:40:38.804Z,1009.66
2023-04-17T01:41:38.769Z,1009.66
2023-04-17T01:42:38.753Z,1009.62
2023-04-17T01:43:38.746Z,1009.61
2023-04-17T01:44:38.726Z,1009.63
2023-04-17T01:45:38.722Z,1009.69
2023-04-17T01:46:43.783Z,1009.63
2023-04-17T01:47:38.723Z,1009.64
2023-04-17T01:48:38.689Z,1009.61
2023-04-17T01:49:38.669Z,1009.61
2023-04-17T01:50:38.680Z,1009.65
2023-04-17T01:51:38.650Z,1009.63
2023-04-17T01:52:38.681Z,1009.71
2023-04-17T01:53:38.631Z,1009.67
2023-04-17T01:54:38.616Z,1009.61
2023-04-17T01:55:38.602Z,1009.60
2023-04-17T01:56:38.602Z,1009.60
2023-04-17T01:57:43.623Z,1009.62
2023-04-17T01:58:38.608Z,1009.63
2023-04-17T01:59:38.554Z,1009.56
2023-04-17T02:00:38.544Z,1009.61
2023-04-17T02:01:38.632Z,1009.62
2023-04-17T02:02:38.653Z,1009.62
2023-04-17T02:03:38.718Z,1009.66
2023-04-17T02:04:38.726Z,1009.56
2023-04-17T02:05:38.527Z,1009.57
2023-04-17T02:06:38.500Z,1009.57
2023-04-17T02:07:38.509Z,1009.50
2023-04-17T02:08:43.497Z,1009.55
2023-04-17T02:09:38.450Z,1009.60
2023-04-17T02:10:38.452Z,1009.56
2023-04-17T02:11:38.420Z,1009.56
2023-04-17T02:12:38.408Z,1009.58
2023-04-17T02:13:38.408Z,1009.52
2023-04-17T02:14:38.383Z,1009.57
2023-04-17T02:15:38.385Z,1009.60
2023-04-17T02:16:38.382Z,1009.64
2023-04-17T02:17:38.378Z,1009.61
2023-04-17T02:18:38.349Z,1009.58
2023-04-17T02:19:43.357Z,1009.61
2023-04-17T02:20:38.353Z,1009.60
2023-04-17T02:21:38.307Z,1009.64
2023-04-17T02:22:38.405Z,1009.66
2023-04-17T02:23:38.294Z,1009.57
2023-04-17T02:24:38.281Z,1009.65
2023-04-17T02:25:38.262Z,1009.62
2023-04-17T02:26:38.253Z,1009.58
2023-04-17T02:27:38.240Z,1009.65
2023-04-17T02:28:38.302Z,1009.63
2023-04-17T02:29:38.221Z,1009.69
2023-04-17T02:30:43.238Z,1009.66
2023-04-17T02:31:38.283Z,1009.62
2023-04-17T02:32:38.227Z,1009.67
2023-04-17T02:33:38.193Z,1009.67
2023-04-17T02:34:38.188Z,1009.60
2023-04-17T02:35:38.155Z,1009.64
2023-04-17T02:36:38.168Z,1009.61
2023-04-17T02:37:38.131Z,1009.62
2023-04-17T02:38:38.154Z,1009.56
2023-04-17T02:39:38.124Z,1009.62
2023-04-17T02:40:38.132Z,1009.64
2023-04-17T02:41:43.108Z,1009.64
2023-04-17T02:42:38.070Z,1009.61
2023-04-17T02:43:38.083Z,1009.62
2023-04-17T02:44:38.063Z,1009.58
2023-04-17T02:45:38.050Z,1009.63
2023-04-17T02:46:38.127Z,1009.66
2023-04-17T02:47:38.071Z,1009.58
2023-04-17T02:48:38.026Z,1009.56
2023-04-17T02:49:38.001Z,1009.58
2023-04-17T02:50:37.983Z,1009.59
2023-04-17T02:51:37.986Z,1009.57
2023-04-17T02:52:43.015Z,1009.59
2023-04-17T02:53:37.960Z,1009.60
2023-04-17T02:54:37.956Z,1009.61
2023-04-17T02:55:37.929Z,1009.59
2023-04-17T02:56:37.915Z,1009.66
2023-04-17T02:57:37.912Z,1009.58
2023-04-17T02:58:37.933Z,1009.59
2023-04-17T02:59:37.891Z,1009.55
2023-04-17T03:00:37.914Z,1009.52
2023-04-17T03:01:37.890Z,1009.60
2023-04-17T03:02:38.120Z,1009.53
2023-04-17T03:03:43.266Z,1009.62
2023-04-17T03:04:37.859Z,1009.58
2023-04-17T03:05:37.812Z,1009.56
2023-04-17T03:06:37.800Z,1009.62
2023-04-17T03:07:37.794Z,1009.58
2023-04-17T03:08:37.783Z,1009.55
2023-04-17T03:09:37.779Z,1009.62
2023-04-17T03:10:37.794Z,1009.50
2023-04-17T03:11:37.752Z,1009.54
2023-04-17T03:12:37.744Z,1009.51
2023-04-17T03:13:37.737Z,1009.55
2023-04-17T03:14:42.745Z,1009.49
2023-04-17T03:15:37.700Z,1009.57
2023-04-17T03:16:37.751Z,1009.53
2023-04-17T03:17:37.745Z,1009.46
2023-04-17T03:18:37.666Z,1009.53
2023-04-17T03:19:37.667Z,1009.56
2023-04-17T03:20:37.653Z,1009.55
2023-04-17T03:21:37.638Z,1009.57
2023-04-17T03:22:37.658Z,1009.53
2023-04-17T03:23:37.626Z,1009.53
2023-04-17T03:24:37.612Z,1009.49
2023-04-17T03:25:42.629Z,1009.50
2023-04-17T03:26:37.579Z,1009.52
2023-04-17T03:27:37.581Z,1009.55
2023-04-17T03:28:37.584Z,1009.54
2023-04-17T03:29:37.562Z,1009.52
2023-04-17T03:30:37.547Z,1009.46
2023-04-17T03:31:37.578Z,1009.54
2023-04-17T03:32:37.546Z,1009.55
2023-04-17T03:33:37.501Z,1009.55
2023-04-17T03:34:37.517Z,1009.59
2023-04-17T03:35:37.479Z,1009.55
2023-04-17T03:36:42.482Z,1009.57
2023-04-17T03:37:37.470Z,1009.56
2023-04-17T03:38:37.448Z,1009.59
2023-04-17T03:39:37.438Z,1009.58
2023-04-17T03:40:37.444Z,1009.57
2023-04-17T03:41:37.434Z,1009.54
2023-04-17T03:42:37.400Z,1009.66
2023-04-17T03:43:37.385Z,1009.64
2023-04-17T03:44:37.384Z,1009.61
2023-04-17T03:45:37.402Z,1009.65
2023-04-17T03:46:37.369Z,1009.60
2023-04-17T03:47:42.451Z,1009.64
2023-04-17T03:48:37.339Z,1009.65
2023-04-17T03:49:37.314Z,1009.62
2023-04-17T03:50:37.307Z,1009.67
2023-04-17T03:51:37.314Z,1009.68
2023-04-17T03:52:37.307Z,1009.65
2023-04-17T03:53:37.292Z,1009.66
2023-04-17T03:54:37.258Z,1009.66
2023-04-17T03:55:37.250Z,1009.56
2023-04-17T03:56:37.268Z,1009.69
2023-04-17T03:57:37.309Z,1009.69
2023-04-17T03:58:42.304Z,1009.65
2023-04-17T03:59:37.199Z,1009.66
2023-04-17T04:00:37.195Z,1009.70
2023-04-17T04:01:37.175Z,1009.78
2023-04-17T04:02:37.296Z,1009.71
2023-04-17T04:03:37.390Z,1009.73
2023-04-17T04:04:37.247Z,1009.77
2023-04-17T04:05:37.132Z,1009.70
2023-04-17T04:06:37.117Z,1009.74
2023-04-17T04:07:37.105Z,1009.75
2023-04-17T04:08:37.093Z,1009.76
2023-04-17T04:09:42.122Z,1009.80
2023-04-17T04:10:37.096Z,1009.74
2023-04-17T04:11:37.065Z,1009.82
2023-04-17T04:12:37.049Z,1009.80
2023-04-17T04:13:37.063Z,1009.83
2023-04-17T04:14:37.848Z,1009.83
2023-04-17T04:15:37.040Z,1009.77
2023-04-17T04:16:37.104Z,1009.82
2023-04-17T04:17:37.019Z,1009.82
2023-04-17T04:18:36.987Z,1009.87
2023-04-17T04:19:36.987Z,1009.86
2023-04-17T04:20:41.976Z,1009.83
2023-04-17T04:21:36.948Z,1009.85
2023-04-17T04:22:36.957Z,1009.86
2023-04-17T04:23:36.921Z,1009.82
2023-04-17T04:24:36.930Z,1009.88
2023-04-17T04:25:36.912Z,1009.84
2023-04-17T04:26:36.891Z,1009.83
2023-04-17T04:27:36.886Z,1009.85
2023-04-17T04:28:36.915Z,1009.90
2023-04-17T04:29:36.883Z,1009.89
2023-04-17T04:30:36.853Z,1009.92
2023-04-17T04:31:41.873Z,1009.88
2023-04-17T04:32:36.860Z,1009.89
2023-04-17T04:33:36.817Z,1009.93
2023-04-17T04:34:36.838Z,1009.90
2023-04-17T04:35:38.210Z,1009.87
2023-04-17T04:36:36.778Z,1009.92
2023-04-17T04:37:36.766Z,1009.91
2023-04-17T04:38:36.753Z,1009.92
2023-04-17T04:39:36.765Z,1009.95
2023-04-17T04:40:36.744Z,1009.96
2023-04-17T04:41:36.718Z,1009.97
2023-04-17T04:42:41.736Z,1009.99
2023-04-17T04:43:36.696Z,1009.94
2023-04-17T04:44:36.693Z,1009.95
2023-04-17T04:45:36.690Z,1010.01
2023-04-17T04:46:36.713Z,1009.95
2023-04-17T04:47:36.772Z,1009.94
2023-04-17T04:48:36.642Z,1009.99
2023-04-17T04:49:36.637Z,1009.94
2023-04-17T04:50:36.621Z,1009.92
2023-04-17T04:51:36.605Z,1009.91
2023-04-17T04:52:36.604Z,1009.96
2023-04-17T04:53:41.611Z,1009.90
2023-04-17T04:54:36.582Z,1009.92
2023-04-17T04:55:36.568Z,1009.95
2023-04-17T04:56:36.552Z,1009.94
2023-04-17T04:57:36.539Z,1009.92
2023-04-17T04:58:36.544Z,1009.92
2023-04-17T04:59:38.507Z,1009.98
2023-04-17T05:00:36.515Z,1010.04
2023-04-17T05:01:36.589Z,1010.01
2023-04-17T05:02:36.629Z,1010.04
2023-04-17T05:03:36.673Z,1010.06
2023-04-17T05:04:41.620Z,1010.06
2023-04-17T05:05:36.451Z,1010.15
2023-04-17T05:06:36.443Z,1010.08
2023-04-17T05:07:36.427Z,1010.10
2023-04-17T05:08:36.419Z,1010.09
2023-04-17T05:09:36.416Z,1010.13
2023-04-17T05:10:36.411Z,1010.12
2023-04-17T05:11:36.387Z,1010.07
2023-04-17T05:12:36.374Z,1010.12
2023-04-17T05:13:36.371Z,1010.07
2023-04-17T05:14:36.367Z,1010.07
2023-04-17T05:15:41.373Z,1010.09
2023-04-17T05:16:36.394Z,1010.05
2023-04-17T05:17:36.387Z,1010.11
2023-04-17T05:18:36.303Z,1010.07
2023-04-17T05:19:36.311Z,1010.13
2023-04-17T05:20:36.282Z,1010.03
2023-04-17T05:21:36.276Z,1010.03
2023-04-17T05:22:36.293Z,1010.08
2023-04-17T05:23:36.251Z,1010.06
2023-04-17T05:24:36.244Z,1010.03
2023-04-17T05:25:36.239Z,1010.05
2023-04-17T05:26:41.240Z,1010.12
2023-04-17T05:27:36.208Z,1010.13
2023-04-17T05:28:36.214Z,1010.16
2023-04-17T05:29:36.205Z,1010.09
2023-04-17T05:30:36.168Z,1010.12
2023-04-17T05:31:36.259Z,1010.13
2023-04-17T05:32:36.174Z,1010.15
2023-04-17T05:33:36.157Z,1010.10
2023-04-17T05:34:36.157Z,1010.16
2023-04-17T05:35:36.112Z,1010.07
2023-04-17T05:36:36.110Z,1010.16
2023-04-17T05:37:41.117Z,1010.11
2023-04-17T05:38:36.078Z,1010.14
2023-04-17T05:39:36.079Z,1010.10
2023-04-17T05:40:36.092Z,1010.12
2023-04-17T05:41:36.045Z,1010.16
2023-04-17T05:42:36.042Z,1010.14
2023-04-17T05:43:36.020Z,1010.18
2023-04-17T05:44:36.014Z,1010.10
2023-04-17T05:45:36.043Z,1010.12
2023-04-17T05:46:36.003Z,1010.10
2023-04-17T05:47:36.008Z,1010.09
2023-04-17T05:48:40.997Z,1010.16
2023-04-17T05:49:35.953Z,1010.15
2023-04-17T05:50:35.962Z,1010.11
2023-04-17T05:51:35.934Z,1010.10
2023-04-17T05:52:37.996Z,1010.23
2023-04-17T05:53:35.915Z,1010.12
2023-04-17T05:54:35.904Z,1010.16
2023-04-17T05:55:35.913Z,1010.19
2023-04-17T05:56:35.875Z,1010.17
2023-04-17T05:57:35.874Z,1010.15
2023-04-17T05:58:35.883Z,1010.20
2023-04-17T05:59:40.874Z,1010.20
2023-04-17T06:00:35.842Z,1010.17
2023-04-17T06:01:35.816Z,1010.16
2023-04-17T06:02:35.898Z,1010.16
2023-04-17T06:03:35.976Z,1010.24
2023-04-17T06:04:36.167Z,1010.16
2023-04-17T06:05:35.863Z,1010.23
2023-04-17T06:06:35.760Z,1010.22
2023-04-17T06:07:35.751Z,1010.22
2023-04-17T06:08:35.740Z,1010.25
2023-04-17T06:09:35.737Z,1010.25
2023-04-17T06:10:40.801Z,1010.25
2023-04-17T06:11:35.702Z,1010.24
2023-04-17T06:12:35.700Z,1010.24
2023-04-17T06:13:35.693Z,1010.23
2023-04-17T06:14:35.672Z,1010.26
2023-04-17T06:15:35.666Z,1010.32
2023-04-17T06:16:35.666Z,1010.28
2023-04-17T06:17:35.649Z,1010.30
2023-04-17T06:18:35.625Z,1010.26
2023-04-17T06:19:35.631Z,1010.28
2023-04-17T06:20:37.327Z,1010.29
2023-04-17T06:21:40.618Z,1010.26
2023-04-17T06:22:35.595Z,1010.34
2023-04-17T06:23:35.565Z,1010.35
2023-04-17T06:24:35.556Z,1010.33
2023-04-17T06:25:35.553Z,1010.28
2023-04-17T06:26:35.552Z,1010.27
2023-04-17T06:27:37.040Z,1010.33
2023-04-17T06:28:35.529Z,1010.25
2023-04-17T06:29:35.500Z,1010.21
2023-04-17T06:30:35.625Z,1010.15
2023-04-17T06:31:35.528Z,1010.27
2023-04-17T06:32:40.516Z,1010.31
2023-04-17T06:33:35.451Z,1010.28
2023-04-17T06:34:36.918Z,1010.30
2023-04-17T06:35:35.447Z,1010.22
2023-04-17T06:36:35.440Z,1010.21
2023-04-17T06:37:35.411Z,1010.28
2023-04-17T06:38:35.414Z,1010.25
2023-04-17T06:39:35.390Z,1010.26
2023-04-17T06:40:35.403Z,1010.24
2023-04-17T06:41:35.366Z,1010.20
2023-04-17T06:42:35.382Z,1010.28
2023-04-17T06:43:40.370Z,1010.32
2023-04-17T06:44:35.327Z,1010.24
2023-04-17T06:45:35.340Z,1010.19
2023-04-17T06:46:35.356Z,1010.25
2023-04-17T06:47:35.331Z,1010.27
2023-04-17T06:48:35.284Z,1010.27
2023-04-17T06:49:35.271Z,1010.31
2023-04-17T06:50:35.297Z,1010.29
2023-04-17T06:51:35.250Z,1010.34
2023-04-17T06:52:35.290Z,1010.28
2023-04-17T06:53:35.232Z,1010.34
2023-04-17T06:54:40.242Z,1010.36
2023-04-17T06:55:35.230Z,1010.29
2023-04-17T06:56:35.196Z,1010.33
2023-04-17T06:57:35.180Z,1010.36
2023-04-17T06:58:35.181Z,1010.46
2023-04-17T06:59:35.156Z,1010.42
2023-04-17T07:00:35.164Z,1010.44
2023-04-17T07:01:35.202Z,1010.42
2023-04-17T07:02:35.194Z,1010.41
2023-04-17T07:03:36.118Z,1010.40
2023-04-17T07:04:35.132Z,1010.42
2023-04-17T07:05:40.122Z,1010.37
2023-04-17T07:06:35.089Z,1010.38
2023-04-17T07:07:35.064Z,1010.34
2023-04-17T07:08:35.091Z,1010.32
2023-04-17T07:09:35.042Z,1010.34
2023-04-17T07:10:35.079Z,1010.30
2023-04-17T07:11:35.020Z,1010.42
2023-04-17T07:12:35.042Z,1010.38
2023-04-17T07:13:34.996Z,1010.42
2023-04-17T07:14:34.988Z,1010.43
2023-04-17T07:15:35.011Z,1010.44
2023-04-17T07:16:40.048Z,1010.49
2023-04-17T07:17:34.995Z,1010.46
2023-04-17T07:18:34.948Z,1010.40
2023-04-17T07:19:34.934Z,1010.41
2023-04-17T07:20:34.927Z,1010.39
2023-04-17T07:21:34.902Z,1010.41
2023-04-17T07:22:34.912Z,1010.44
2023-04-17T07:23:34.879Z,1010.50
2023-04-17T07:24:34.902Z,1010.53
2023-04-17T07:25:34.877Z,1010.62
2023-04-17T07:26:34.873Z,1010.54
2023-04-17T07:27:39.863Z,1010.56
2023-04-17T07:28:34.847Z,1010.59
2023-04-17T07:29:34.818Z,1010.54
2023-04-17T07:30:34.814Z,1010.52
2023-04-17T07:31:34.847Z,1010.46
2023-04-17T07:32:34.795Z,1010.53
2023-04-17T07:33:34.779Z,1010.51
2023-04-17T07:34:34.785Z,1010.52
2023-04-17T07:35:34.757Z,1010.51
2023-04-17T07:36:34.739Z,1010.49
2023-04-17T07:37:34.735Z,1010.53
2023-04-17T07:38:41.029Z,1010.52
2023-04-17T07:39:34.699Z,1010.50
2023-04-17T07:40:34.726Z,1010.56
2023-04-17T07:41:34.686Z,1010.63
2023-04-17T07:42:34.666Z,1010.53
2023-04-17T07:43:34.660Z,1010.64
2023-04-17T07:44:34.651Z,1010.54
2023-04-17T07:45:34.641Z,1010.63
2023-04-17T07:46:34.678Z,1010.66
2023-04-17T07:47:34.636Z,1010.67
2023-04-17T07:48:34.609Z,1010.68
2023-04-17T07:49:39.637Z,1010.64
2023-04-17T07:50:34.599Z,1010.71
2023-04-17T07:51:34.617Z,1010.69
2023-04-17T07:52:34.614Z,1010.66
2023-04-17T07:53:34.536Z,1010.63
2023-04-17T07:54:34.528Z,1010.63
2023-04-17T07:55:34.523Z,1010.65
2023-04-17T07:56:34.676Z,1010.58
2023-04-17T07:57:34.498Z,1010.60
2023-04-17T07:58:34.499Z,1010.60
2023-04-17T07:59:34.473Z,1010.67
2023-04-17T08:00:39.490Z,1010.59
2023-04-17T08:01:34.465Z,1010.58
2023-04-17T08:02:34.549Z,1010.61
2023-04-17T08:03:34.684Z,1010.62
2023-04-17T08:04:34.644Z,1010.66
2023-04-17T08:05:34.412Z,1010.67
2023-04-17T08:06:34.394Z,1010.64
2023-04-17T08:07:34.387Z,1010.64
2023-04-17T08:08:34.368Z,1010.62
2023-04-17T08:09:34.369Z,1010.61
2023-04-17T08:10:34.355Z,1010.66
2023-04-17T08:11:53.344Z,1010.67
2023-04-17T08:12:35.325Z,1010.66
2023-04-17T08:13:34.390Z,1010.71
2023-04-17T08:14:34.308Z,1010.69
2023-04-17T08:15:34.326Z,1010.66
2023-04-17T08:16:34.331Z,1010.75
2023-04-17T08:17:34.344Z,1010.77
2023-04-17T08:18:34.274Z,1010.62
2023-04-17T08:19:34.248Z,1010.67
2023-04-17T08:20:34.246Z,1010.64
2023-04-17T08:21:34.244Z,1010.66
2023-04-17T08:22:39.246Z,1010.81
2023-04-17T08:23:34.195Z,1010.73
2023-04-17T08:24:34.196Z,1010.65
2023-04-17T08:25:34.198Z,1010.64
2023-04-17T08:26:34.169Z,1010.69
2023-04-17T08:27:34.171Z,1010.69
2023-04-17T08:28:34.158Z,1010.69
2023-04-17T08:29:34.134Z,1010.71
2023-04-17T08:30:34.167Z,1010.68
2023-04-17T08:31:34.109Z,1010.68
2023-04-17T08:32:34.117Z,1010.64
2023-04-17T08:33:39.110Z,1010.70
2023-04-17T08:34:34.101Z,1010.67
2023-04-17T08:35:34.062Z,1010.62
2023-04-17T08:36:34.081Z,1010.67
2023-04-17T08:37:34.038Z,1010.68
2023-04-17T08:38:34.030Z,1010.65
2023-04-17T08:39:34.014Z,1010.66
2023-04-17T08:40:34.036Z,1010.74
2023-04-17T08:41:34.008Z,1010.74
2023-04-17T08:42:33.989Z,1010.69
2023-04-17T08:43:33.988Z,1010.71
2023-04-17T08:44:39.004Z,1010.77
2023-04-17T08:45:33.947Z,1010.68
2023-04-17T08:46:34.016Z,1010.72
2023-04-17T08:47:33.974Z,1010.80
2023-04-17T08:48:33.921Z,1010.78
2023-04-17T08:49:33.901Z,1010.79
2023-04-17T08:50:33.901Z,1010.75
2023-04-17T08:51:33.889Z,1010.74
2023-04-17T08:52:33.895Z,1010.74
2023-04-17T08:53:33.856Z,1010.67
2023-04-17T08:54:33.904Z,1010.65
2023-04-17T08:55:38.879Z,1010.70
2023-04-17T08:56:33.837Z,1010.70
2023-04-17T08:57:33.914Z,1010.71
2023-04-17T08:58:33.806Z,1010.72
2023-04-17T08:59:33.815Z,1010.68
2023-04-17T09:00:33.791Z,1010.75
2023-04-17T09:01:33.823Z,1010.73
2023-04-17T09:02:33.953Z,1010.70
2023-04-17T09:03:33.902Z,1010.72
2023-04-17T09:04:33.804Z,1010.74
2023-04-17T09:05:33.757Z,1010.74
2023-04-17T09:06:38.744Z,1010.61
2023-04-17T09:07:33.695Z,1010.70
2023-04-17T09:08:33.788Z,1010.70
2023-04-17T09:09:33.673Z,1010.72
2023-04-17T09:10:33.664Z,1010.71
2023-04-17T09:11:33.663Z,1010.72
2023-04-17T09:12:33.646Z,1010.64
2023-04-17T09:13:33.629Z,1010.69
2023-04-17T09:14:33.701Z,1010.78
2023-04-17T09:15:33.882Z,1010.73
2023-04-17T09:16:33.655Z,1010.77
2023-04-17T09:17:38.702Z,1010.72
2023-04-17T09:18:33.592Z,1010.71
2023-04-17T09:19:35.073Z,1010.67
2023-04-17T09:20:33.647Z,1010.71
2023-04-17T09:21:33.558Z,1010.74
2023-04-17T09:22:33.534Z,1010.87
2023-04-17T09:23:33.515Z,1010.77
2023-04-17T09:24:33.506Z,1010.79
2023-04-17T09:25:33.491Z,1010.79
2023-04-17T09:26:33.592Z,1010.79
2023-04-17T09:27:33.479Z,1010.82
2023-04-17T09:28:38.480Z,1010.81
2023-04-17T09:29:33.453Z,1010.77
2023-04-17T09:30:33.440Z,1010.79
2023-04-17T09:31:33.485Z,1010.83
2023-04-17T09:32:33.545Z,1010.81
2023-04-17T09:33:33.403Z,1010.83
2023-04-17T09:34:33.392Z,1010.84
2023-04-17T09:35:33.400Z,1010.83
2023-04-17T09:36:33.380Z,1010.79
2023-04-17T09:37:33.366Z,1010.81
2023-04-17T09:38:33.414Z,1010.80
2023-04-17T09:39:38.367Z,1010.84
2023-04-17T09:40:33.334Z,1010.81
2023-04-17T09:41:33.323Z,1010.80
2023-04-17T09:42:33.305Z,1010.80
2023-04-17T09:43:33.292Z,1010.79
2023-04-17T09:44:33.341Z,1010.84
2023-04-17T09:45:33.392Z,1010.88
2023-04-17T09:46:33.339Z,1010.88
2023-04-17T09:47:33.297Z,1010.90
2023-04-17T09:48:33.240Z,1010.82
2023-04-17T09:49:33.221Z,1010.83
2023-04-17T09:50:39.060Z,1010.84
2023-04-17T09:51:33.213Z,1010.93
2023-04-17T09:52:33.183Z,1010.86
2023-04-17T09:53:33.168Z,1010.82
2023-04-17T09:54:33.161Z,1010.92
2023-04-17T09:55:33.146Z,1010.87
2023-04-17T09:56:33.201Z,1010.96
2023-04-17T09:57:33.134Z,1011.00
2023-04-17T09:58:33.114Z,1010.99
2023-04-17T09:59:33.100Z,1010.96
2023-04-17T10:00:33.119Z,1010.89
2023-04-17T10:01:38.200Z,1010.96
2023-04-17T10:02:33.332Z,1010.93
2023-04-17T10:03:36.646Z,1010.96
2023-04-17T10:04:33.132Z,1010.92
2023-04-17T10:05:33.161Z,1010.96
2023-04-17T10:06:33.024Z,1010.95
2023-04-17T10:07:33.015Z,1010.97
2023-04-17T10:08:33.080Z,1010.98
2023-04-17T10:09:32.988Z,1010.93
2023-04-17T10:10:32.973Z,1010.98
2023-04-17T10:11:32.988Z,1010.98
2023-04-17T10:12:37.982Z,1011.04
2023-04-17T10:13:32.934Z,1011.07
2023-04-17T10:14:33.024Z,1011.07
2023-04-17T10:15:32.921Z,1011.09
2023-04-17T10:16:32.958Z,1011.02
2023-04-17T10:17:32.927Z,1010.97
2023-04-17T10:18:32.880Z,1011.05
2023-04-17T10:19:33.005Z,1011.03
2023-04-17T10:20:32.959Z,1010.95
2023-04-17T10:21:32.843Z,1010.95
2023-04-17T10:22:32.843Z,1010.97
2023-04-17T10:23:37.842Z,1010.97
2023-04-17T10:24:32.821Z,1010.90
2023-04-17T10:25:32.799Z,1010.96
2023-04-17T10:26:32.859Z,1010.89
2023-04-17T10:27:32.808Z,1010.94
2023-04-17T10:28:32.768Z,1010.99
2023-04-17T10:29:32.761Z,1010.95
2023-04-17T10:30:32.743Z,1010.97
2023-04-17T10:31:32.778Z,1010.89
2023-04-17T10:32:32.890Z,1010.88
2023-04-17T10:33:32.712Z,1010.90
2023-04-17T10:34:37.761Z,1010.87
2023-04-17T10:35:32.697Z,1010.88
2023-04-17T10:36:32.718Z,1010.86
2023-04-17T10:37:32.674Z,1010.81
2023-04-17T10:38:32.760Z,1010.84
2023-04-17T10:39:32.642Z,1010.92
2023-04-17T10:40:32.631Z,1010.91
2023-04-17T10:41:32.661Z,1010.86
2023-04-17T10:42:32.772Z,1010.89
2023-04-17T10:43:32.606Z,1010.82
2023-04-17T10:44:32.602Z,1010.78
2023-04-17T10:45:37.664Z,1010.86
2023-04-17T10:46:32.625Z,1010.86
2023-04-17T10:47:32.602Z,1010.84
2023-04-17T10:48:32.557Z,1010.83
2023-04-17T10:49:32.532Z,1010.82
2023-04-17T10:50:32.609Z,1010.81
2023-04-17T10:51:32.506Z,1010.88
2023-04-17T10:52:32.502Z,1010.80
2023-04-17T10:53:32.495Z,1010.84
2023-04-17T10:54:32.468Z,1010.80
2023-04-17T10:55:32.483Z,1010.75
2023-04-17T10:56:37.600Z,1010.78
2023-04-17T10:57:32.446Z,1010.80
2023-04-17T10:58:32.423Z,1010.78
2023-04-17T10:59:32.413Z,1010.86
2023-04-17T11:00:32.402Z,1010.83
2023-04-17T11:01:32.464Z,1010.83
2023-04-17T11:02:32.528Z,1010.76
2023-04-17T11:03:32.452Z,1010.78
2023-04-17T11:04:32.396Z,1010.80
2023-04-17T11:05:32.362Z,1010.73
2023-04-17T11:06:32.354Z,1010.74
2023-04-17T11:07:37.356Z,1010.78
2023-04-17T11:08:32.376Z,1010.80
2023-04-17T11:09:32.298Z,1010.72
2023-04-17T11:10:32.293Z,1010.73
2023-04-17T11:11:43.489Z,1010.69
2023-04-17T11:12:32.280Z,1010.67
2023-04-17T11:13:32.272Z,1010.70
2023-04-17T11:14:32.397Z,1010.72
2023-04-17T11:15:32.233Z,1010.72
2023-04-17T11:16:32.256Z,1010.69
2023-04-17T11:17:32.260Z,1010.69
2023-04-17T11:18:37.230Z,1010.65
2023-04-17T11:19:32.201Z,1010.61
2023-04-17T11:20:32.261Z,1010.66
2023-04-17T11:21:32.170Z,1010.72
2023-04-17T11:22:32.166Z,1010.60
2023-04-17T11:23:32.166Z,1010.65
2023-04-17T11:24:32.137Z,1010.65
2023-04-17T11:25:32.139Z,1010.70
2023-04-17T11:26:32.186Z,1010.70
2023-04-17T11:27:32.104Z,1010.66
2023-04-17T11:28:32.108Z,1010.66
2023-04-17T11:29:37.106Z,1010.68
2023-04-17T11:30:32.061Z,1010.69
2023-04-17T11:31:32.130Z,1010.66
2023-04-17T11:32:32.158Z,1010.68
2023-04-17T11:33:32.038Z,1010.60
2023-04-17T11:34:32.038Z,1010.62
2023-04-17T11:35:32.039Z,1010.65
2023-04-17T11:36:31.997Z,1010.63
2023-04-17T11:37:31.986Z,1010.58
2023-04-17T11:38:32.078Z,1010.62
2023-04-17T11:39:31.966Z,1010.60
2023-04-17T11:40:36.973Z,1010.57
2023-04-17T11:41:31.939Z,1010.62
2023-04-17T11:42:31.932Z,1010.70
2023-04-17T11:43:31.928Z,1010.64
2023-04-17T11:44:31.958Z,1010.58
2023-04-17T11:45:31.895Z,1010.60
2023-04-17T11:46:31.928Z,1010.57
2023-04-17T11:47:31.925Z,1010.57
2023-04-17T11:48:31.870Z,1010.56
2023-04-17T11:49:31.895Z,1010.59
2023-04-17T11:50:31.897Z,1010.54
2023-04-17T11:51:36.850Z,1010.58
2023-04-17T11:52:31.820Z,1010.53
2023-04-17T11:53:31.817Z,1010.62
2023-04-17T11:54:31.823Z,1010.56
2023-04-17T11:55:31.786Z,1010.60
2023-04-17T11:56:31.809Z,1010.60
2023-04-17T11:57:31.760Z,1010.67
2023-04-17T11:58:31.756Z,1010.65
2023-04-17T11:59:31.737Z,1010.63
2023-04-17T12:00:31.727Z,1010.57
2023-04-17T12:01:31.748Z,1010.56
2023-04-17T12:02:36.887Z,1010.66
2023-04-17T12:03:31.966Z,1010.66
2023-04-17T12:04:31.802Z,1010.63
2023-04-17T12:05:31.809Z,1010.69